Portada
METAR-TAF:

METAR-TAF

Aeropuertos :

Aeropuerto Internacional Fua'amotu

Tongatapu, Tonga

latitud: 21-14S, longitud: 175-09W, altitud: 38 m

Observación

El informe se hizo hace 9 minutos, a las 11:00 UTC
Viento 9 kt del noreste
Temperatura 23°C
Humedad 94%
Presión 1017 hPa
Visibilidad 10 km o más
Escasas nubes a una altura de 900 ft
Nubes dispersas a una altura de 1500 ft
Cielo nuboso a una altura de 3000 ft
llovizna ligera,

METAR: NFTF 191100Z 04009KT 9999 -DZ FEW009 SCT015 BKN030 23/22 Q1017

Hora: 00:09 (11:09 UTC)

Pronóstico

El informe se hizo hace 5 horas y 58 minutos, a las 05:11 UTC
Pronóstico válido del 19 a las 06 UTC al 20 a las 06 UTC
Viento 8 kt del este-noreste
Visibilidad 10 km o más
Escasas nubes a una altura de 1700 ft

TAF: NFTF 190511Z 1906/2006 06008KT 9999 FEW017

Observaciones y pronósticos meteorológicos de más de 4000 aeropuertos (mensajes METAR y TAF).

Los puntos amarillos y rojos representan las estaciones disponibles.

Ponga el ratón en el punto deseado para ver el nombre de la estación.

Haga clic para ver las observaciones y los pronósticos meteorológicos.

Para cambiar el mapa : haga clic en los botones verdes con una cruz de color negro para hacer un zoom, en el botón verde con un guión para alejar o en las flechas verdes para mapas adyacentes.


METAR-TAF: